sensor_id;sensor_type;location;lat;lon;timestamp;P1;durP1;ratioP1;P2;durP2;ratioP2
4754;SDS011;2391;47.212;7.542;2023-10-08T00:02:00;6.27;;;3.93;;
4754;SDS011;2391;47.212;7.542;2023-10-08T00:04:26;6.30;;;4.10;;
4754;SDS011;2391;47.212;7.542;2023-10-08T00:06:52;6.87;;;3.40;;
4754;SDS011;2391;47.212;7.542;2023-10-08T00:09:19;7.60;;;4.20;;
4754;SDS011;2391;47.212;7.542;2023-10-08T00:11:46;6.37;;;4.27;;
4754;SDS011;2391;47.212;7.542;2023-10-08T00:14:14;4.17;;;3.30;;
4754;SDS011;2391;47.212;7.542;2023-10-08T00:16:41;3.67;;;3.37;;
4754;SDS011;2391;47.212;7.542;2023-10-08T00:19:07;5.83;;;3.67;;
4754;SDS011;2391;47.212;7.542;2023-10-08T00:21:34;10.20;;;3.23;;
4754;SDS011;2391;47.212;7.542;2023-10-08T00:24:05;4.80;;;3.40;;
4754;SDS011;2391;47.212;7.542;2023-10-08T00:26:33;7.33;;;4.23;;
4754;SDS011;2391;47.212;7.542;2023-10-08T00:29:02;5.10;;;3.60;;
4754;SDS011;2391;47.212;7.542;2023-10-08T00:31:45;8.10;;;3.27;;
4754;SDS011;2391;47.212;7.542;2023-10-08T00:34:11;6.70;;;3.30;;
4754;SDS011;2391;47.212;7.542;2023-10-08T00:36:46;6.30;;;3.60;;
4754;SDS011;2391;47.212;7.542;2023-10-08T00:39:14;4.00;;;3.57;;
4754;SDS011;2391;47.212;7.542;2023-10-08T00:41:45;11.17;;;3.70;;
4754;SDS011;2391;47.212;7.542;2023-10-08T00:44:12;6.60;;;3.70;;
4754;SDS011;2391;47.212;7.542;2023-10-08T00:46:40;6.30;;;3.50;;
4754;SDS011;2391;47.212;7.542;2023-10-08T00:49:16;5.30;;;3.30;;
4754;SDS011;2391;47.212;7.542;2023-10-08T00:51:54;6.67;;;3.83;;
4754;SDS011;2391;47.212;7.542;2023-10-08T00:54:35;6.40;;;3.73;;
4754;SDS011;2391;47.212;7.542;2023-10-08T00:57:03;7.33;;;3.40;;
4754;SDS011;2391;47.212;7.542;2023-10-08T00:59:33;6.30;;;3.17;;
4754;SDS011;2391;47.212;7.542;2023-10-08T01:02:01;4.57;;;3.33;;
4754;SDS011;2391;47.212;7.542;2023-10-08T01:04:29;5.40;;;4.20;;
4754;SDS011;2391;47.212;7.542;2023-10-08T01:06:57;12.13;;;3.70;;
4754;SDS011;2391;47.212;7.542;2023-10-08T01:09:27;3.53;;;3.00;;
4754;SDS011;2391;47.212;7.542;2023-10-08T01:14:44;6.37;;;3.33;;
4754;SDS011;2391;47.212;7.542;2023-10-08T01:17:12;6.33;;;3.83;;
4754;SDS011;2391;47.212;7.542;2023-10-08T01:19:41;4.97;;;3.37;;
4754;SDS011;2391;47.212;7.542;2023-10-08T01:22:10;7.97;;;3.60;;
4754;SDS011;2391;47.212;7.542;2023-10-08T01:24:46;5.77;;;3.70;;
4754;SDS011;2391;47.212;7.542;2023-10-08T01:27:18;6.67;;;4.00;;
4754;SDS011;2391;47.212;7.542;2023-10-08T01:29:46;7.03;;;3.63;;
4754;SDS011;2391;47.212;7.542;2023-10-08T01:32:12;4.93;;;3.47;;
4754;SDS011;2391;47.212;7.542;2023-10-08T01:34:39;6.20;;;4.20;;
4754;SDS011;2391;47.212;7.542;2023-10-08T01:37:07;14.13;;;3.87;;
4754;SDS011;2391;47.212;7.542;2023-10-08T01:39:37;5.60;;;3.70;;
4754;SDS011;2391;47.212;7.542;2023-10-08T01:42:05;7.97;;;3.80;;
4754;SDS011;2391;47.212;7.542;2023-10-08T01:44:31;4.93;;;3.67;;
4754;SDS011;2391;47.212;7.542;2023-10-08T01:46:58;4.30;;;3.70;;
4754;SDS011;2391;47.212;7.542;2023-10-08T01:49:24;5.73;;;3.97;;
4754;SDS011;2391;47.212;7.542;2023-10-08T01:51:52;5.67;;;3.70;;
4754;SDS011;2391;47.212;7.542;2023-10-08T01:54:19;10.10;;;3.47;;
4754;SDS011;2391;47.212;7.542;2023-10-08T01:56:46;6.40;;;3.97;;
4754;SDS011;2391;47.212;7.542;2023-10-08T01:59:14;7.90;;;3.80;;
4754;SDS011;2391;47.212;7.542;2023-10-08T02:01:41;5.70;;;4.00;;
4754;SDS011;2391;47.212;7.542;2023-10-08T02:04:08;5.20;;;4.03;;
4754;SDS011;2391;47.212;7.542;2023-10-08T02:06:36;7.07;;;3.33;;
4754;SDS011;2391;47.212;7.542;2023-10-08T02:09:02;7.03;;;3.90;;
4754;SDS011;2391;47.212;7.542;2023-10-08T02:14:10;5.17;;;3.90;;
4754;SDS011;2391;47.212;7.542;2023-10-08T02:16:36;5.70;;;3.67;;
4754;SDS011;2391;47.212;7.542;2023-10-08T02:19:03;9.20;;;4.10;;
4754;SDS011;2391;47.212;7.542;2023-10-08T02:21:29;7.13;;;3.50;;
4754;SDS011;2391;47.212;7.542;2023-10-08T02:23:55;7.17;;;4.00;;
4754;SDS011;2391;47.212;7.542;2023-10-08T02:26:20;4.63;;;3.30;;
4754;SDS011;2391;47.212;7.542;2023-10-08T02:28:46;6.10;;;3.97;;
4754;SDS011;2391;47.212;7.542;2023-10-08T02:31:12;9.30;;;4.67;;
4754;SDS011;2391;47.212;7.542;2023-10-08T02:33:37;5.97;;;3.90;;
4754;SDS011;2391;47.212;7.542;2023-10-08T02:36:03;6.77;;;4.03;;
4754;SDS011;2391;47.212;7.542;2023-10-08T02:38:29;6.37;;;4.10;;
4754;SDS011;2391;47.212;7.542;2023-10-08T02:40:57;5.93;;;3.83;;
4754;SDS011;2391;47.212;7.542;2023-10-08T02:43:24;10.60;;;3.70;;
4754;SDS011;2391;47.212;7.542;2023-10-08T02:45:51;7.67;;;3.70;;
4754;SDS011;2391;47.212;7.542;2023-10-08T02:48:18;5.00;;;3.60;;
4754;SDS011;2391;47.212;7.542;2023-10-08T02:50:45;5.30;;;3.40;;
4754;SDS011;2391;47.212;7.542;2023-10-08T02:53:11;11.10;;;4.00;;
4754;SDS011;2391;47.212;7.542;2023-10-08T02:55:38;6.20;;;3.33;;
4754;SDS011;2391;47.212;7.542;2023-10-08T02:58:06;5.20;;;3.70;;
4754;SDS011;2391;47.212;7.542;2023-10-08T03:00:31;8.70;;;4.23;;
4754;SDS011;2391;47.212;7.542;2023-10-08T03:03:00;5.90;;;3.70;;
4754;SDS011;2391;47.212;7.542;2023-10-08T03:05:28;7.10;;;3.40;;
4754;SDS011;2391;47.212;7.542;2023-10-08T03:07:59;7.60;;;3.93;;
4754;SDS011;2391;47.212;7.542;2023-10-08T03:10:25;6.43;;;4.47;;
4754;SDS011;2391;47.212;7.542;2023-10-08T03:12:53;7.60;;;4.47;;
4754;SDS011;2391;47.212;7.542;2023-10-08T03:15:19;9.00;;;4.60;;
4754;SDS011;2391;47.212;7.542;2023-10-08T03:17:55;5.97;;;3.63;;
4754;SDS011;2391;47.212;7.542;2023-10-08T03:20:23;5.40;;;3.60;;
4754;SDS011;2391;47.212;7.542;2023-10-08T03:22:57;6.33;;;3.77;;
4754;SDS011;2391;47.212;7.542;2023-10-08T03:25:23;6.47;;;3.40;;
4754;SDS011;2391;47.212;7.542;2023-10-08T03:27:50;4.83;;;3.67;;
4754;SDS011;2391;47.212;7.542;2023-10-08T03:30:15;5.53;;;3.57;;
4754;SDS011;2391;47.212;7.542;2023-10-08T03:32:42;5.00;;;3.60;;
4754;SDS011;2391;47.212;7.542;2023-10-08T03:35:10;9.57;;;3.60;;
4754;SDS011;2391;47.212;7.542;2023-10-08T03:37:36;5.30;;;3.57;;
4754;SDS011;2391;47.212;7.542;2023-10-08T03:40:07;8.47;;;3.90;;
4754;SDS011;2391;47.212;7.542;2023-10-08T03:42:52;5.80;;;3.70;;
4754;SDS011;2391;47.212;7.542;2023-10-08T03:45:19;7.00;;;3.60;;
4754;SDS011;2391;47.212;7.542;2023-10-08T03:48:04;6.17;;;3.93;;
4754;SDS011;2391;47.212;7.542;2023-10-08T03:50:32;5.53;;;3.43;;
4754;SDS011;2391;47.212;7.542;2023-10-08T03:53:08;8.93;;;3.83;;
4754;SDS011;2391;47.212;7.542;2023-10-08T03:55:38;5.73;;;3.30;;
4754;SDS011;2391;47.212;7.542;2023-10-08T03:58:08;5.70;;;3.73;;
4754;SDS011;2391;47.212;7.542;2023-10-08T04:00:36;7.17;;;3.70;;
4754;SDS011;2391;47.212;7.542;2023-10-08T04:03:04;5.17;;;3.60;;
4754;SDS011;2391;47.212;7.542;2023-10-08T04:05:31;4.80;;;3.90;;
4754;SDS011;2391;47.212;7.542;2023-10-08T04:07:59;4.80;;;3.67;;
4754;SDS011;2391;47.212;7.542;2023-10-08T04:10:27;5.63;;;3.47;;
4754;SDS011;2391;47.212;7.542;2023-10-08T04:13:10;6.17;;;4.00;;
4754;SDS011;2391;47.212;7.542;2023-10-08T04:15:37;4.73;;;3.77;;
4754;SDS011;2391;47.212;7.542;2023-10-08T04:18:07;5.70;;;3.40;;
4754;SDS011;2391;47.212;7.542;2023-10-08T04:20:35;5.70;;;3.63;;
4754;SDS011;2391;47.212;7.542;2023-10-08T04:23:04;4.40;;;3.53;;
4754;SDS011;2391;47.212;7.542;2023-10-08T04:25:33;10.03;;;4.97;;
4754;SDS011;2391;47.212;7.542;2023-10-08T04:27:59;5.27;;;3.50;;
4754;SDS011;2391;47.212;7.542;2023-10-08T04:30:26;6.10;;;3.73;;
4754;SDS011;2391;47.212;7.542;2023-10-08T04:33:05;8.20;;;4.10;;
4754;SDS011;2391;47.212;7.542;2023-10-08T04:35:38;6.10;;;3.73;;
4754;SDS011;2391;47.212;7.542;2023-10-08T04:38:20;6.37;;;3.70;;
4754;SDS011;2391;47.212;7.542;2023-10-08T04:40:48;12.00;;;3.90;;
4754;SDS011;2391;47.212;7.542;2023-10-08T04:43:23;5.70;;;3.80;;
4754;SDS011;2391;47.212;7.542;2023-10-08T04:46:00;6.07;;;3.63;;
4754;SDS011;2391;47.212;7.542;2023-10-08T04:48:24;9.30;;;4.30;;
4754;SDS011;2391;47.212;7.542;2023-10-08T04:50:52;4.80;;;3.37;;
4754;SDS011;2391;47.212;7.542;2023-10-08T04:53:27;5.83;;;3.63;;
4754;SDS011;2391;47.212;7.542;2023-10-08T04:56:04;6.73;;;3.63;;
4754;SDS011;2391;47.212;7.542;2023-10-08T04:58:32;5.20;;;3.37;;
4754;SDS011;2391;47.212;7.542;2023-10-08T05:01:01;5.80;;;3.90;;
4754;SDS011;2391;47.212;7.542;2023-10-08T05:03:29;7.17;;;4.10;;
4754;SDS011;2391;47.212;7.542;2023-10-08T05:05:56;4.60;;;3.23;;
4754;SDS011;2391;47.212;7.542;2023-10-08T05:08:33;6.60;;;3.27;;
4754;SDS011;2391;47.212;7.542;2023-10-08T05:11:18;4.77;;;3.43;;
4754;SDS011;2391;47.212;7.542;2023-10-08T05:13:52;7.47;;;3.77;;
4754;SDS011;2391;47.212;7.542;2023-10-08T05:16:23;6.67;;;3.40;;
4754;SDS011;2391;47.212;7.542;2023-10-08T05:19:07;6.30;;;3.40;;
4754;SDS011;2391;47.212;7.542;2023-10-08T05:21:35;6.17;;;3.33;;
4754;SDS011;2391;47.212;7.542;2023-10-08T05:24:03;6.47;;;3.47;;
4754;SDS011;2391;47.212;7.542;2023-10-08T05:26:40;5.17;;;2.90;;
4754;SDS011;2391;47.212;7.542;2023-10-08T05:29:08;6.30;;;3.23;;
4754;SDS011;2391;47.212;7.542;2023-10-08T05:31:53;5.03;;;3.20;;
4754;SDS011;2391;47.212;7.542;2023-10-08T05:34:20;5.47;;;4.00;;
4754;SDS011;2391;47.212;7.542;2023-10-08T05:36:51;6.10;;;3.70;;
4754;SDS011;2391;47.212;7.542;2023-10-08T05:39:27;11.70;;;3.60;;
4754;SDS011;2391;47.212;7.542;2023-10-08T05:42:07;19.23;;;4.37;;
4754;SDS011;2391;47.212;7.542;2023-10-08T05:44:48;5.50;;;3.53;;
4754;SDS011;2391;47.212;7.542;2023-10-08T05:47:32;6.17;;;3.77;;
4754;SDS011;2391;47.212;7.542;2023-10-08T05:50:00;5.00;;;2.80;;
4754;SDS011;2391;47.212;7.542;2023-10-08T05:55:18;4.80;;;3.20;;
4754;SDS011;2391;47.212;7.542;2023-10-08T05:57:53;6.63;;;3.50;;
4754;SDS011;2391;47.212;7.542;2023-10-08T06:00:45;8.77;;;3.43;;
4754;SDS011;2391;47.212;7.542;2023-10-08T06:03:18;5.77;;;2.90;;
4754;SDS011;2391;47.212;7.542;2023-10-08T06:06:03;6.17;;;3.07;;
4754;SDS011;2391;47.212;7.542;2023-10-08T06:08:39;6.70;;;2.93;;
4754;SDS011;2391;47.212;7.542;2023-10-08T06:11:17;6.73;;;3.50;;
4754;SDS011;2391;47.212;7.542;2023-10-08T06:14:03;4.23;;;2.90;;
4754;SDS011;2391;47.212;7.542;2023-10-08T06:16:32;4.67;;;2.97;;
4754;SDS011;2391;47.212;7.542;2023-10-08T06:18:59;9.10;;;3.90;;
4754;SDS011;2391;47.212;7.542;2023-10-08T06:21:25;4.73;;;3.37;;
4754;SDS011;2391;47.212;7.542;2023-10-08T06:23:52;5.10;;;3.43;;
4754;SDS011;2391;47.212;7.542;2023-10-08T06:26:20;6.90;;;3.73;;
4754;SDS011;2391;47.212;7.542;2023-10-08T06:28:47;6.53;;;3.90;;
4754;SDS011;2391;47.212;7.542;2023-10-08T06:31:14;8.93;;;3.70;;
4754;SDS011;2391;47.212;7.542;2023-10-08T06:33:44;5.77;;;3.50;;
4754;SDS011;2391;47.212;7.542;2023-10-08T06:36:10;6.47;;;3.40;;
4754;SDS011;2391;47.212;7.542;2023-10-08T06:38:40;7.13;;;3.97;;
4754;SDS011;2391;47.212;7.542;2023-10-08T06:41:09;7.80;;;3.70;;
4754;SDS011;2391;47.212;7.542;2023-10-08T06:43:41;4.30;;;3.23;;
4754;SDS011;2391;47.212;7.542;2023-10-08T06:46:18;7.50;;;3.60;;
4754;SDS011;2391;47.212;7.542;2023-10-08T06:48:48;7.43;;;3.80;;
4754;SDS011;2391;47.212;7.542;2023-10-08T06:51:14;6.20;;;4.83;;
4754;SDS011;2391;47.212;7.542;2023-10-08T06:53:45;5.57;;;4.40;;
4754;SDS011;2391;47.212;7.542;2023-10-08T06:56:16;6.60;;;4.13;;
4754;SDS011;2391;47.212;7.542;2023-10-08T06:58:43;6.13;;;4.30;;
4754;SDS011;2391;47.212;7.542;2023-10-08T07:01:17;7.33;;;4.60;;
4754;SDS011;2391;47.212;7.542;2023-10-08T07:03:51;5.50;;;4.10;;
4754;SDS011;2391;47.212;7.542;2023-10-08T07:06:17;6.10;;;4.60;;
4754;SDS011;2391;47.212;7.542;2023-10-08T07:08:55;9.50;;;4.60;;
4754;SDS011;2391;47.212;7.542;2023-10-08T07:11:21;5.87;;;4.70;;
4754;SDS011;2391;47.212;7.542;2023-10-08T07:13:47;9.17;;;5.20;;
4754;SDS011;2391;47.212;7.542;2023-10-08T07:16:13;10.13;;;4.87;;
4754;SDS011;2391;47.212;7.542;2023-10-08T07:18:41;6.93;;;4.47;;
4754;SDS011;2391;47.212;7.542;2023-10-08T07:21:09;8.00;;;4.93;;
4754;SDS011;2391;47.212;7.542;2023-10-08T07:23:38;5.53;;;4.50;;
4754;SDS011;2391;47.212;7.542;2023-10-08T07:26:06;7.80;;;4.50;;
4754;SDS011;2391;47.212;7.542;2023-10-08T07:28:39;8.20;;;5.07;;
4754;SDS011;2391;47.212;7.542;2023-10-08T07:31:20;7.00;;;5.00;;
4754;SDS011;2391;47.212;7.542;2023-10-08T07:33:49;5.13;;;4.17;;
4754;SDS011;2391;47.212;7.542;2023-10-08T07:36:28;10.77;;;4.73;;
4754;SDS011;2391;47.212;7.542;2023-10-08T07:38:55;10.97;;;5.33;;
4754;SDS011;2391;47.212;7.542;2023-10-08T07:41:21;6.03;;;4.40;;
4754;SDS011;2391;47.212;7.542;2023-10-08T07:43:47;10.10;;;4.80;;
4754;SDS011;2391;47.212;7.542;2023-10-08T07:46:16;10.67;;;4.97;;
4754;SDS011;2391;47.212;7.542;2023-10-08T07:48:44;9.27;;;4.70;;
4754;SDS011;2391;47.212;7.542;2023-10-08T07:51:09;7.63;;;4.67;;
4754;SDS011;2391;47.212;7.542;2023-10-08T07:53:35;10.00;;;5.10;;
4754;SDS011;2391;47.212;7.542;2023-10-08T07:56:06;10.80;;;4.77;;
4754;SDS011;2391;47.212;7.542;2023-10-08T07:58:34;12.83;;;4.83;;
4754;SDS011;2391;47.212;7.542;2023-10-08T08:01:05;9.27;;;4.87;;
4754;SDS011;2391;47.212;7.542;2023-10-08T08:03:33;8.77;;;5.00;;
4754;SDS011;2391;47.212;7.542;2023-10-08T08:06:03;9.10;;;5.00;;
4754;SDS011;2391;47.212;7.542;2023-10-08T08:08:37;11.73;;;6.30;;
4754;SDS011;2391;47.212;7.542;2023-10-08T08:11:04;9.97;;;5.47;;
4754;SDS011;2391;47.212;7.542;2023-10-08T08:13:33;9.03;;;6.17;;
4754;SDS011;2391;47.212;7.542;2023-10-08T08:16:00;7.83;;;5.80;;
4754;SDS011;2391;47.212;7.542;2023-10-08T08:18:28;12.03;;;6.10;;
4754;SDS011;2391;47.212;7.542;2023-10-08T08:20:55;9.40;;;6.00;;
4754;SDS011;2391;47.212;7.542;2023-10-08T08:23:23;8.77;;;6.00;;
4754;SDS011;2391;47.212;7.542;2023-10-08T08:25:48;13.23;;;5.63;;
4754;SDS011;2391;47.212;7.542;2023-10-08T08:28:33;9.20;;;4.80;;
4754;SDS011;2391;47.212;7.542;2023-10-08T08:31:05;8.80;;;5.30;;
4754;SDS011;2391;47.212;7.542;2023-10-08T08:33:33;8.47;;;4.70;;
4754;SDS011;2391;47.212;7.542;2023-10-08T08:36:22;8.63;;;4.80;;
4754;SDS011;2391;47.212;7.542;2023-10-08T08:38:46;7.73;;;4.80;;
4754;SDS011;2391;47.212;7.542;2023-10-08T08:41:13;10.23;;;4.97;;
4754;SDS011;2391;47.212;7.542;2023-10-08T08:43:41;11.87;;;5.50;;
4754;SDS011;2391;47.212;7.542;2023-10-08T08:46:09;7.33;;;4.73;;
4754;SDS011;2391;47.212;7.542;2023-10-08T08:48:41;7.77;;;4.70;;
4754;SDS011;2391;47.212;7.542;2023-10-08T08:51:09;9.70;;;5.17;;
4754;SDS011;2391;47.212;7.542;2023-10-08T08:53:36;9.27;;;4.60;;
4754;SDS011;2391;47.212;7.542;2023-10-08T08:56:02;6.77;;;4.20;;
4754;SDS011;2391;47.212;7.542;2023-10-08T08:58:32;12.37;;;4.20;;
4754;SDS011;2391;47.212;7.542;2023-10-08T09:00:59;7.90;;;4.70;;
4754;SDS011;2391;47.212;7.542;2023-10-08T09:03:26;11.13;;;4.47;;
4754;SDS011;2391;47.212;7.542;2023-10-08T09:05:53;7.93;;;4.50;;
4754;SDS011;2391;47.212;7.542;2023-10-08T09:08:19;9.90;;;4.30;;
4754;SDS011;2391;47.212;7.542;2023-10-08T09:10:45;7.50;;;3.97;;
4754;SDS011;2391;47.212;7.542;2023-10-08T09:13:19;10.47;;;4.80;;
4754;SDS011;2391;47.212;7.542;2023-10-08T09:15:49;13.40;;;5.53;;
4754;SDS011;2391;47.212;7.542;2023-10-08T09:18:15;8.77;;;4.47;;
4754;SDS011;2391;47.212;7.542;2023-10-08T09:20:41;8.27;;;4.07;;
4754;SDS011;2391;47.212;7.542;2023-10-08T09:23:11;11.20;;;3.77;;
4754;SDS011;2391;47.212;7.542;2023-10-08T09:25:43;13.50;;;4.57;;
4754;SDS011;2391;47.212;7.542;2023-10-08T09:28:10;8.70;;;4.10;;
4754;SDS011;2391;47.212;7.542;2023-10-08T09:30:38;8.97;;;3.93;;
4754;SDS011;2391;47.212;7.542;2023-10-08T09:33:10;10.27;;;3.97;;
4754;SDS011;2391;47.212;7.542;2023-10-08T09:35:42;9.27;;;4.20;;
4754;SDS011;2391;47.212;7.542;2023-10-08T09:38:11;11.10;;;4.07;;
4754;SDS011;2391;47.212;7.542;2023-10-08T09:40:37;8.97;;;4.23;;
4754;SDS011;2391;47.212;7.542;2023-10-08T09:43:06;15.13;;;4.40;;
4754;SDS011;2391;47.212;7.542;2023-10-08T09:45:35;9.13;;;4.13;;
4754;SDS011;2391;47.212;7.542;2023-10-08T09:48:04;11.10;;;4.00;;
4754;SDS011;2391;47.212;7.542;2023-10-08T09:50:40;7.30;;;3.90;;
4754;SDS011;2391;47.212;7.542;2023-10-08T09:53:12;12.23;;;4.13;;
4754;SDS011;2391;47.212;7.542;2023-10-08T09:55:54;8.40;;;3.60;;
4754;SDS011;2391;47.212;7.542;2023-10-08T09:58:21;12.83;;;3.70;;
4754;SDS011;2391;47.212;7.542;2023-10-08T10:00:49;8.67;;;3.67;;
4754;SDS011;2391;47.212;7.542;2023-10-08T10:03:19;11.10;;;3.67;;
4754;SDS011;2391;47.212;7.542;2023-10-08T10:05:47;9.30;;;3.47;;
4754;SDS011;2391;47.212;7.542;2023-10-08T10:08:16;10.77;;;3.70;;
4754;SDS011;2391;47.212;7.542;2023-10-08T10:10:44;8.40;;;3.20;;
4754;SDS011;2391;47.212;7.542;2023-10-08T10:13:11;9.20;;;3.67;;
4754;SDS011;2391;47.212;7.542;2023-10-08T10:15:37;9.87;;;4.07;;
4754;SDS011;2391;47.212;7.542;2023-10-08T10:20:44;14.47;;;4.13;;
4754;SDS011;2391;47.212;7.542;2023-10-08T10:31:42;11.37;;;3.60;;
4754;SDS011;2391;47.212;7.542;2023-10-08T10:34:12;8.10;;;3.40;;
4754;SDS011;2391;47.212;7.542;2023-10-08T10:36:42;12.13;;;4.00;;
4754;SDS011;2391;47.212;7.542;2023-10-08T10:39:12;12.80;;;3.50;;
4754;SDS011;2391;47.212;7.542;2023-10-08T10:41:46;10.77;;;3.97;;
4754;SDS011;2391;47.212;7.542;2023-10-08T10:44:12;11.30;;;3.63;;
4754;SDS011;2391;47.212;7.542;2023-10-08T10:46:41;10.53;;;3.43;;
4754;SDS011;2391;47.212;7.542;2023-10-08T10:49:12;11.70;;;4.00;;
4754;SDS011;2391;47.212;7.542;2023-10-08T10:51:47;14.30;;;4.10;;
4754;SDS011;2391;47.212;7.542;2023-10-08T10:54:16;9.23;;;4.10;;
4754;SDS011;2391;47.212;7.542;2023-10-08T10:56:46;9.53;;;3.90;;
4754;SDS011;2391;47.212;7.542;2023-10-08T10:59:13;12.77;;;4.13;;
4754;SDS011;2391;47.212;7.542;2023-10-08T11:01:47;11.70;;;3.90;;
4754;SDS011;2391;47.212;7.542;2023-10-08T11:04:15;9.63;;;4.00;;
4754;SDS011;2391;47.212;7.542;2023-10-08T11:06:42;6.90;;;3.50;;
4754;SDS011;2391;47.212;7.542;2023-10-08T11:09:10;8.20;;;3.60;;
4754;SDS011;2391;47.212;7.542;2023-10-08T11:11:38;6.80;;;3.80;;
4754;SDS011;2391;47.212;7.542;2023-10-08T11:14:06;9.03;;;3.60;;
4754;SDS011;2391;47.212;7.542;2023-10-08T11:16:34;9.07;;;3.67;;
4754;SDS011;2391;47.212;7.542;2023-10-08T11:19:02;9.30;;;3.73;;
4754;SDS011;2391;47.212;7.542;2023-10-08T11:21:30;15.20;;;3.77;;
4754;SDS011;2391;47.212;7.542;2023-10-08T11:23:57;92.97;;;5.10;;
4754;SDS011;2391;47.212;7.542;2023-10-08T11:26:34;11.73;;;4.03;;
4754;SDS011;2391;47.212;7.542;2023-10-08T11:28:58;13.70;;;3.83;;
4754;SDS011;2391;47.212;7.542;2023-10-08T11:31:27;10.93;;;4.13;;
4754;SDS011;2391;47.212;7.542;2023-10-08T11:33:58;11.33;;;3.67;;
4754;SDS011;2391;47.212;7.542;2023-10-08T11:36:27;11.97;;;4.20;;
4754;SDS011;2391;47.212;7.542;2023-10-08T11:38:54;11.50;;;3.93;;
4754;SDS011;2391;47.212;7.542;2023-10-08T11:41:28;9.90;;;3.70;;
4754;SDS011;2391;47.212;7.542;2023-10-08T11:43:58;9.03;;;3.13;;
4754;SDS011;2391;47.212;7.542;2023-10-08T11:46:29;14.27;;;3.23;;
4754;SDS011;2391;47.212;7.542;2023-10-08T11:49:04;13.70;;;4.00;;
4754;SDS011;2391;47.212;7.542;2023-10-08T11:51:34;10.83;;;3.27;;
4754;SDS011;2391;47.212;7.542;2023-10-08T11:54:01;10.00;;;3.43;;
4754;SDS011;2391;47.212;7.542;2023-10-08T11:56:30;12.70;;;3.43;;
4754;SDS011;2391;47.212;7.542;2023-10-08T11:58:57;14.73;;;3.10;;
4754;SDS011;2391;47.212;7.542;2023-10-08T12:01:24;10.00;;;3.90;;
4754;SDS011;2391;47.212;7.542;2023-10-08T12:03:50;11.13;;;3.37;;
4754;SDS011;2391;47.212;7.542;2023-10-08T12:06:16;15.00;;;3.60;;
4754;SDS011;2391;47.212;7.542;2023-10-08T12:08:46;7.00;;;3.27;;
4754;SDS011;2391;47.212;7.542;2023-10-08T12:11:15;10.40;;;4.23;;
4754;SDS011;2391;47.212;7.542;2023-10-08T12:13:41;11.47;;;3.87;;
4754;SDS011;2391;47.212;7.542;2023-10-08T12:16:13;9.07;;;3.20;;
4754;SDS011;2391;47.212;7.542;2023-10-08T12:18:48;30.60;;;4.20;;
4754;SDS011;2391;47.212;7.542;2023-10-08T12:21:16;5.50;;;2.77;;
4754;SDS011;2391;47.212;7.542;2023-10-08T12:23:43;11.70;;;3.47;;
4754;SDS011;2391;47.212;7.542;2023-10-08T12:26:10;9.80;;;3.50;;
4754;SDS011;2391;47.212;7.542;2023-10-08T12:28:38;12.53;;;3.63;;
4754;SDS011;2391;47.212;7.542;2023-10-08T12:31:04;10.37;;;3.97;;
4754;SDS011;2391;47.212;7.542;2023-10-08T12:33:30;14.30;;;3.60;;
4754;SDS011;2391;47.212;7.542;2023-10-08T12:35:57;6.20;;;2.77;;
4754;SDS011;2391;47.212;7.542;2023-10-08T12:38:25;12.00;;;3.60;;
4754;SDS011;2391;47.212;7.542;2023-10-08T12:40:53;15.07;;;3.87;;
4754;SDS011;2391;47.212;7.542;2023-10-08T12:43:20;8.13;;;3.20;;
4754;SDS011;2391;47.212;7.542;2023-10-08T12:45:49;16.77;;;3.60;;
4754;SDS011;2391;47.212;7.542;2023-10-08T12:48:21;30.63;;;5.30;;
4754;SDS011;2391;47.212;7.542;2023-10-08T12:50:49;16.23;;;3.40;;
4754;SDS011;2391;47.212;7.542;2023-10-08T12:53:19;7.03;;;3.70;;
4754;SDS011;2391;47.212;7.542;2023-10-08T12:55:48;15.10;;;3.83;;
4754;SDS011;2391;47.212;7.542;2023-10-08T12:58:15;8.17;;;2.90;;
4754;SDS011;2391;47.212;7.542;2023-10-08T13:00:42;7.03;;;3.90;;
4754;SDS011;2391;47.212;7.542;2023-10-08T13:03:07;9.30;;;3.10;;
4754;SDS011;2391;47.212;7.542;2023-10-08T13:05:35;8.60;;;3.87;;
4754;SDS011;2391;47.212;7.542;2023-10-08T13:08:02;13.27;;;4.30;;
4754;SDS011;2391;47.212;7.542;2023-10-08T13:10:33;8.30;;;3.17;;
4754;SDS011;2391;47.212;7.542;2023-10-08T13:12:58;14.03;;;3.93;;
4754;SDS011;2391;47.212;7.542;2023-10-08T13:15:24;15.80;;;3.57;;
4754;SDS011;2391;47.212;7.542;2023-10-08T13:17:51;7.63;;;3.10;;
4754;SDS011;2391;47.212;7.542;2023-10-08T13:20:19;10.00;;;3.77;;
4754;SDS011;2391;47.212;7.542;2023-10-08T13:22:46;10.33;;;2.90;;
4754;SDS011;2391;47.212;7.542;2023-10-08T13:25:12;7.40;;;3.20;;
4754;SDS011;2391;47.212;7.542;2023-10-08T13:27:39;10.20;;;3.70;;
4754;SDS011;2391;47.212;7.542;2023-10-08T13:30:06;14.97;;;4.00;;
4754;SDS011;2391;47.212;7.542;2023-10-08T13:32:35;16.70;;;3.80;;
4754;SDS011;2391;47.212;7.542;2023-10-08T13:35:05;9.10;;;3.60;;
4754;SDS011;2391;47.212;7.542;2023-10-08T13:37:33;11.70;;;3.80;;
4754;SDS011;2391;47.212;7.542;2023-10-08T13:40:01;9.00;;;3.60;;
4754;SDS011;2391;47.212;7.542;2023-10-08T13:42:27;11.17;;;4.13;;
4754;SDS011;2391;47.212;7.542;2023-10-08T13:44:54;14.37;;;3.87;;
4754;SDS011;2391;47.212;7.542;2023-10-08T13:47:23;12.03;;;3.47;;
4754;SDS011;2391;47.212;7.542;2023-10-08T13:49:54;18.73;;;4.00;;
4754;SDS011;2391;47.212;7.542;2023-10-08T13:52:22;11.33;;;3.17;;
4754;SDS011;2391;47.212;7.542;2023-10-08T13:54:50;14.83;;;4.07;;
4754;SDS011;2391;47.212;7.542;2023-10-08T13:57:20;11.43;;;3.27;;
4754;SDS011;2391;47.212;7.542;2023-10-08T13:59:46;13.43;;;4.47;;
4754;SDS011;2391;47.212;7.542;2023-10-08T14:02:14;12.90;;;3.83;;
4754;SDS011;2391;47.212;7.542;2023-10-08T14:04:41;10.33;;;3.20;;
4754;SDS011;2391;47.212;7.542;2023-10-08T14:07:11;13.90;;;4.00;;
4754;SDS011;2391;47.212;7.542;2023-10-08T14:09:43;9.00;;;3.33;;
4754;SDS011;2391;47.212;7.542;2023-10-08T14:12:11;9.57;;;3.77;;
4754;SDS011;2391;47.212;7.542;2023-10-08T14:14:39;10.70;;;3.53;;
4754;SDS011;2391;47.212;7.542;2023-10-08T14:17:11;13.43;;;4.00;;
4754;SDS011;2391;47.212;7.542;2023-10-08T14:19:41;18.70;;;3.83;;
4754;SDS011;2391;47.212;7.542;2023-10-08T14:22:17;11.83;;;4.07;;
4754;SDS011;2391;47.212;7.542;2023-10-08T14:24:45;23.43;;;4.37;;
4754;SDS011;2391;47.212;7.542;2023-10-08T14:27:11;10.17;;;3.33;;
4754;SDS011;2391;47.212;7.542;2023-10-08T14:29:39;10.20;;;3.27;;
4754;SDS011;2391;47.212;7.542;2023-10-08T14:32:08;13.93;;;2.93;;
4754;SDS011;2391;47.212;7.542;2023-10-08T14:34:35;15.13;;;3.40;;
4754;SDS011;2391;47.212;7.542;2023-10-08T14:37:22;12.70;;;3.53;;
4754;SDS011;2391;47.212;7.542;2023-10-08T14:40:06;13.93;;;3.77;;
4754;SDS011;2391;47.212;7.542;2023-10-08T14:42:51;24.20;;;4.20;;
4754;SDS011;2391;47.212;7.542;2023-10-08T14:45:30;11.87;;;3.10;;
4754;SDS011;2391;47.212;7.542;2023-10-08T14:47:58;13.80;;;3.70;;
4754;SDS011;2391;47.212;7.542;2023-10-08T14:50:25;11.90;;;3.87;;
4754;SDS011;2391;47.212;7.542;2023-10-08T14:52:57;10.13;;;3.40;;
4754;SDS011;2391;47.212;7.542;2023-10-08T14:55:25;9.47;;;3.67;;
4754;SDS011;2391;47.212;7.542;2023-10-08T14:57:51;14.33;;;3.50;;
4754;SDS011;2391;47.212;7.542;2023-10-08T15:00:20;10.40;;;4.20;;
4754;SDS011;2391;47.212;7.542;2023-10-08T15:02:49;9.13;;;3.27;;
4754;SDS011;2391;47.212;7.542;2023-10-08T15:05:15;15.30;;;3.23;;
4754;SDS011;2391;47.212;7.542;2023-10-08T15:07:41;20.47;;;3.37;;
4754;SDS011;2391;47.212;7.542;2023-10-08T15:10:07;15.67;;;3.17;;
4754;SDS011;2391;47.212;7.542;2023-10-08T15:12:34;13.17;;;3.80;;
4754;SDS011;2391;47.212;7.542;2023-10-08T15:15:02;9.33;;;2.87;;
4754;SDS011;2391;47.212;7.542;2023-10-08T15:17:31;11.73;;;3.60;;
4754;SDS011;2391;47.212;7.542;2023-10-08T15:19:59;10.90;;;3.70;;
4754;SDS011;2391;47.212;7.542;2023-10-08T15:22:26;14.07;;;3.50;;
4754;SDS011;2391;47.212;7.542;2023-10-08T15:24:51;12.67;;;3.53;;
4754;SDS011;2391;47.212;7.542;2023-10-08T15:27:17;8.60;;;3.00;;
4754;SDS011;2391;47.212;7.542;2023-10-08T15:29:43;15.90;;;3.20;;
4754;SDS011;2391;47.212;7.542;2023-10-08T15:32:09;15.23;;;4.00;;
4754;SDS011;2391;47.212;7.542;2023-10-08T15:34:36;10.20;;;3.07;;
4754;SDS011;2391;47.212;7.542;2023-10-08T15:37:03;14.53;;;3.37;;
4754;SDS011;2391;47.212;7.542;2023-10-08T15:39:29;12.03;;;3.50;;
4754;SDS011;2391;47.212;7.542;2023-10-08T15:41:55;7.10;;;2.60;;
4754;SDS011;2391;47.212;7.542;2023-10-08T15:44:20;9.13;;;3.37;;